Martin Challenger — WDB2346 — position and weather

sailwx.info

Track history (hours):
 
Tides and Currents Weather Stations Pressure Air Temp Water Temp Dewpoint Dewpoint Depression Visibility Wind Speed Wind Dir Waves Ship Positions

Martin Challenger

Owner: MARTIN OPERATING PARTNERSHIP LP, VIDOR, TX. More information available from US FCC via Universal Licensing System and Coast Guard Vessel Documentation Center.

Last reported at 2015-Jul-30 15:25 UTC. Time now 2015-Aug-02 00:20 UTC.
Position N 29°27' W 094°51'.

Length 20 m; draft 2.9 m.

MMSI: 366874920.

Date/timePositionNaut miles runAvg speedWind from/ knotsBaromVisibWave heightAir tempDewpointWater temp
2015-Jul-30 15:25N 29°27' W 094°51'5 5.7
2015-Jul-30 14:33N 29°31' W 094°53'6 5.8
2015-Jul-30 13:33N 29°36' W 094°57'6 5.6
2015-Jul-30 12:33N 29°41' W 094°59'5 4.7
2015-Jul-30 11:33N 29°44' W 095°04'2 2.0
2015-Jul-30 10:28N 29°45' W 095°06'0 0.0
2015-Jul-29 19:32N 29°45' W 095°06'0 0.0
2015-Jul-29 18:13N 29°45' W 095°06'0 0.0
2015-Jul-29 17:29N 29°45' W 095°06'0 0.0
2015-Jul-29 16:32N 29°45' W 095°06'0 0.0
2015-Jul-29 13:20N 29°45' W 095°06'0 0.0
2015-Jul-29 12:13N 29°45' W 095°06'0 0.1
2015-Jul-29 11:28N 29°45' W 095°06'1 0.0
2015-Jul-27 19:10N 29°46' W 095°04'3 5.3
2015-Jul-27 18:33N 29°44' W 095°02'5 5.0
2015-Jul-27 17:33N 29°40' W 094°58'6 5.8
2015-Jul-27 16:33N 29°34' W 094°55'  
2015-Jul-23 11:17N 29°21' W 094°49'1 0.1
2015-Jul-22 18:33N 29°22' W 094°49'0 0.0
2015-Jul-21 15:16N 29°22' W 094°49'0 0.0
2015-Jul-21 14:08N 29°22' W 094°49'  
Track history (hours):
 
Tides and Currents Weather Stations Pressure Air Temp Water Temp Dewpoint Dewpoint Depression Visibility Wind Speed Wind Dir Waves Ship Positions

Martin Challenger

Owner: MARTIN OPERATING PARTNERSHIP LP, VIDOR, TX. More information available from US FCC via Universal Licensing System and Coast Guard Vessel Documentation Center.

Last reported at 2015-Jul-30 15:25 UTC. Time now 2015-Aug-02 00:20 UTC.
Position N 29°27' W 094°51'.

Length 20 m; draft 2.9 m.

MMSI: 366874920.

Date/timePositionNaut miles runAvg speedWind from/ knotsBaromVisibWave heightAir tempDewpointWater temp
2015-Jul-30 15:25N 29°27' W 094°51'5 5.7
2015-Jul-30 14:33N 29°31' W 094°53'6 5.8
2015-Jul-30 13:33N 29°36' W 094°57'6 5.6
2015-Jul-30 12:33N 29°41' W 094°59'5 4.7
2015-Jul-30 11:33N 29°44' W 095°04'2 2.0
2015-Jul-30 10:28N 29°45' W 095°06'0 0.0
2015-Jul-29 19:32N 29°45' W 095°06'0 0.0
2015-Jul-29 18:13N 29°45' W 095°06'0 0.0
2015-Jul-29 17:29N 29°45' W 095°06'0 0.0
2015-Jul-29 16:32N 29°45' W 095°06'0 0.0
2015-Jul-29 13:20N 29°45' W 095°06'0 0.0
2015-Jul-29 12:13N 29°45' W 095°06'0 0.1
2015-Jul-29 11:28N 29°45' W 095°06'1 0.0
2015-Jul-27 19:10N 29°46' W 095°04'3 5.3
2015-Jul-27 18:33N 29°44' W 095°02'5 5.0
2015-Jul-27 17:33N 29°40' W 094°58'6 5.8
2015-Jul-27 16:33N 29°34' W 094°55'  
2015-Jul-23 11:17N 29°21' W 094°49'1 0.1
2015-Jul-22 18:33N 29°22' W 094°49'0 0.0
2015-Jul-21 15:16N 29°22' W 094°49'0 0.0
2015-Jul-21 14:08N 29°22' W 094°49'  

Dump ship's entire track history